sensor_id;sensor_type;location;lat;lon;timestamp;P1;durP1;ratioP1;P2;durP2;ratioP2
44272;SDS011;29964;17.182;-96.766;2023-07-16T00:02:22;3.60;;;1.58;;
44272;SDS011;29964;17.182;-96.766;2023-07-16T00:04:49;2.05;;;1.00;;
44272;SDS011;29964;17.182;-96.766;2023-07-16T00:07:15;1.38;;;0.82;;
44272;SDS011;29964;17.182;-96.766;2023-07-16T00:09:43;8.90;;;1.58;;
44272;SDS011;29964;17.182;-96.766;2023-07-16T00:12:10;1.45;;;0.98;;
44272;SDS011;29964;17.182;-96.766;2023-07-16T00:14:37;1.67;;;0.98;;
44272;SDS011;29964;17.182;-96.766;2023-07-16T00:17:03;2.63;;;1.23;;
44272;SDS011;29964;17.182;-96.766;2023-07-16T00:19:30;2.47;;;1.20;;
44272;SDS011;29964;17.182;-96.766;2023-07-16T00:21:57;1.40;;;0.93;;
44272;SDS011;29964;17.182;-96.766;2023-07-16T00:24:24;2.00;;;0.80;;
44272;SDS011;29964;17.182;-96.766;2023-07-16T00:26:50;4.60;;;1.60;;
44272;SDS011;29964;17.182;-96.766;2023-07-16T00:29:17;5.18;;;1.23;;
44272;SDS011;29964;17.182;-96.766;2023-07-16T00:31:44;3.17;;;1.23;;
44272;SDS011;29964;17.182;-96.766;2023-07-16T00:34:11;4.53;;;1.33;;
44272;SDS011;29964;17.182;-96.766;2023-07-16T00:36:38;1.50;;;0.80;;
44272;SDS011;29964;17.182;-96.766;2023-07-16T00:39:05;3.30;;;0.85;;
44272;SDS011;29964;17.182;-96.766;2023-07-16T00:41:32;2.25;;;1.10;;
44272;SDS011;29964;17.182;-96.766;2023-07-16T00:43:58;5.63;;;1.45;;
44272;SDS011;29964;17.182;-96.766;2023-07-16T00:46:25;1.13;;;0.68;;
44272;SDS011;29964;17.182;-96.766;2023-07-16T00:48:53;3.25;;;0.85;;
44272;SDS011;29964;17.182;-96.766;2023-07-16T00:51:19;7.80;;;1.15;;
44272;SDS011;29964;17.182;-96.766;2023-07-16T00:53:48;4.75;;;1.05;;
44272;SDS011;29964;17.182;-96.766;2023-07-16T00:56:16;2.65;;;1.20;;
44272;SDS011;29964;17.182;-96.766;2023-07-16T00:58:43;6.03;;;0.80;;
44272;SDS011;29964;17.182;-96.766;2023-07-16T01:01:10;11.52;;;1.40;;
44272;SDS011;29964;17.182;-96.766;2023-07-16T01:03:37;2.92;;;1.15;;
44272;SDS011;29964;17.182;-96.766;2023-07-16T01:08:45;4.43;;;1.10;;
44272;SDS011;29964;17.182;-96.766;2023-07-16T01:11:12;1.30;;;0.85;;
44272;SDS011;29964;17.182;-96.766;2023-07-16T01:13:40;17.48;;;1.50;;
44272;SDS011;29964;17.182;-96.766;2023-07-16T01:16:17;6.55;;;1.35;;
44272;SDS011;29964;17.182;-96.766;2023-07-16T01:18:45;10.73;;;1.48;;
44272;SDS011;29964;17.182;-96.766;2023-07-16T01:21:11;1.42;;;0.80;;
44272;SDS011;29964;17.182;-96.766;2023-07-16T01:23:56;3.42;;;1.10;;
44272;SDS011;29964;17.182;-96.766;2023-07-16T01:31:38;14.83;;;1.77;;
44272;SDS011;29964;17.182;-96.766;2023-07-16T01:34:06;14.77;;;1.43;;
44272;SDS011;29964;17.182;-96.766;2023-07-16T01:36:33;5.50;;;1.50;;
44272;SDS011;29964;17.182;-96.766;2023-07-16T01:39:01;4.53;;;1.87;;
44272;SDS011;29964;17.182;-96.766;2023-07-16T01:41:27;22.13;;;1.97;;
44272;SDS011;29964;17.182;-96.766;2023-07-16T01:43:54;9.50;;;2.10;;
44272;SDS011;29964;17.182;-96.766;2023-07-16T01:46:21;6.43;;;2.10;;
44272;SDS011;29964;17.182;-96.766;2023-07-16T01:48:48;3.63;;;1.83;;
44272;SDS011;29964;17.182;-96.766;2023-07-16T01:51:15;4.13;;;1.87;;
44272;SDS011;29964;17.182;-96.766;2023-07-16T01:53:41;11.23;;;1.60;;
44272;SDS011;29964;17.182;-96.766;2023-07-16T01:56:08;2.33;;;1.20;;
44272;SDS011;29964;17.182;-96.766;2023-07-16T01:58:35;2.90;;;1.00;;
44272;SDS011;29964;17.182;-96.766;2023-07-16T02:01:02;3.63;;;1.53;;
44272;SDS011;29964;17.182;-96.766;2023-07-16T02:03:28;2.50;;;1.00;;
44272;SDS011;29964;17.182;-96.766;2023-07-16T02:05:55;7.37;;;1.20;;
44272;SDS011;29964;17.182;-96.766;2023-07-16T02:08:22;1.90;;;1.13;;
44272;SDS011;29964;17.182;-96.766;2023-07-16T02:10:49;21.67;;;2.03;;
44272;SDS011;29964;17.182;-96.766;2023-07-16T02:13:16;5.00;;;1.17;;
44272;SDS011;29964;17.182;-96.766;2023-07-16T02:15:43;1.00;;;0.60;;
44272;SDS011;29964;17.182;-96.766;2023-07-16T02:18:09;6.83;;;1.20;;
44272;SDS011;29964;17.182;-96.766;2023-07-16T02:20:36;2.90;;;1.23;;
44272;SDS011;29964;17.182;-96.766;2023-07-16T02:23:03;1.30;;;0.87;;
44272;SDS011;29964;17.182;-96.766;2023-07-16T02:25:31;5.67;;;2.10;;
44272;SDS011;29964;17.182;-96.766;2023-07-16T02:27:58;2.43;;;1.27;;
44272;SDS011;29964;17.182;-96.766;2023-07-16T02:30:25;1.63;;;0.83;;
44272;SDS011;29964;17.182;-96.766;2023-07-16T02:32:52;2.67;;;1.00;;
44272;SDS011;29964;17.182;-96.766;2023-07-16T02:35:18;12.77;;;1.67;;
44272;SDS011;29964;17.182;-96.766;2023-07-16T02:37:45;1.10;;;0.83;;
44272;SDS011;29964;17.182;-96.766;2023-07-16T02:40:12;2.33;;;1.00;;
44272;SDS011;29964;17.182;-96.766;2023-07-16T02:42:39;3.57;;;1.27;;
44272;SDS011;29964;17.182;-96.766;2023-07-16T02:45:06;5.10;;;1.13;;
44272;SDS011;29964;17.182;-96.766;2023-07-16T02:47:33;2.03;;;1.07;;
44272;SDS011;29964;17.182;-96.766;2023-07-16T02:49:59;0.93;;;0.70;;
44272;SDS011;29964;17.182;-96.766;2023-07-16T02:52:26;2.47;;;1.07;;
44272;SDS011;29964;17.182;-96.766;2023-07-16T02:54:53;3.07;;;1.27;;
44272;SDS011;29964;17.182;-96.766;2023-07-16T02:57:21;2.67;;;1.07;;
44272;SDS011;29964;17.182;-96.766;2023-07-16T02:59:48;6.37;;;1.80;;
44272;SDS011;29964;17.182;-96.766;2023-07-16T03:02:15;3.00;;;1.33;;
44272;SDS011;29964;17.182;-96.766;2023-07-16T03:04:42;5.83;;;2.10;;
44272;SDS011;29964;17.182;-96.766;2023-07-16T03:07:08;2.43;;;1.33;;
44272;SDS011;29964;17.182;-96.766;2023-07-16T03:09:35;2.80;;;1.20;;
44272;SDS011;29964;17.182;-96.766;2023-07-16T03:12:02;2.57;;;1.43;;
44272;SDS011;29964;17.182;-96.766;2023-07-16T03:14:29;9.30;;;1.60;;
44272;SDS011;29964;17.182;-96.766;2023-07-16T03:16:56;3.70;;;1.67;;
44272;SDS011;29964;17.182;-96.766;2023-07-16T03:19:22;19.13;;;1.70;;
44272;SDS011;29964;17.182;-96.766;2023-07-16T03:21:49;7.37;;;2.03;;
44272;SDS011;29964;17.182;-96.766;2023-07-16T03:24:16;8.63;;;1.63;;
44272;SDS011;29964;17.182;-96.766;2023-07-16T03:26:43;3.40;;;1.03;;
44272;SDS011;29964;17.182;-96.766;2023-07-16T03:29:10;3.53;;;1.67;;
44272;SDS011;29964;17.182;-96.766;2023-07-16T03:31:37;3.30;;;1.33;;
44272;SDS011;29964;17.182;-96.766;2023-07-16T03:34:03;5.10;;;1.93;;
44272;SDS011;29964;17.182;-96.766;2023-07-16T03:36:30;9.37;;;1.67;;
44272;SDS011;29964;17.182;-96.766;2023-07-16T03:38:57;2.77;;;1.30;;
44272;SDS011;29964;17.182;-96.766;2023-07-16T03:41:24;2.97;;;1.70;;
44272;SDS011;29964;17.182;-96.766;2023-07-16T03:43:51;3.50;;;1.60;;
44272;SDS011;29964;17.182;-96.766;2023-07-16T03:46:18;3.87;;;1.23;;
44272;SDS011;29964;17.182;-96.766;2023-07-16T03:48:44;3.23;;;1.43;;
44272;SDS011;29964;17.182;-96.766;2023-07-16T03:51:11;2.43;;;1.10;;
44272;SDS011;29964;17.182;-96.766;2023-07-16T03:53:38;2.73;;;1.17;;
44272;SDS011;29964;17.182;-96.766;2023-07-16T03:56:05;4.70;;;1.83;;
44272;SDS011;29964;17.182;-96.766;2023-07-16T03:58:32;7.20;;;1.37;;
44272;SDS011;29964;17.182;-96.766;2023-07-16T04:00:58;2.50;;;1.27;;
44272;SDS011;29964;17.182;-96.766;2023-07-16T04:03:25;4.67;;;1.67;;
44272;SDS011;29964;17.182;-96.766;2023-07-16T04:06:00;3.60;;;1.67;;
44272;SDS011;29964;17.182;-96.766;2023-07-16T04:08:27;2.03;;;0.85;;
44272;SDS011;29964;17.182;-96.766;2023-07-16T04:10:53;1.60;;;0.93;;
44272;SDS011;29964;17.182;-96.766;2023-07-16T04:13:20;14.43;;;1.67;;
44272;SDS011;29964;17.182;-96.766;2023-07-16T04:15:47;4.00;;;1.97;;
44272;SDS011;29964;17.182;-96.766;2023-07-16T04:18:14;10.33;;;1.33;;
44272;SDS011;29964;17.182;-96.766;2023-07-16T04:20:41;1.77;;;1.27;;
44272;SDS011;29964;17.182;-96.766;2023-07-16T04:23:11;3.10;;;1.33;;
44272;SDS011;29964;17.182;-96.766;2023-07-16T04:25:38;4.30;;;1.40;;
44272;SDS011;29964;17.182;-96.766;2023-07-16T04:28:04;2.77;;;1.43;;
44272;SDS011;29964;17.182;-96.766;2023-07-16T04:30:31;3.70;;;1.27;;
44272;SDS011;29964;17.182;-96.766;2023-07-16T04:32:58;4.90;;;1.50;;
44272;SDS011;29964;17.182;-96.766;2023-07-16T04:35:25;1.93;;;1.00;;
44272;SDS011;29964;17.182;-96.766;2023-07-16T04:37:52;1.53;;;1.13;;
44272;SDS011;29964;17.182;-96.766;2023-07-16T04:40:18;7.07;;;1.47;;
44272;SDS011;29964;17.182;-96.766;2023-07-16T04:42:45;4.60;;;1.50;;
44272;SDS011;29964;17.182;-96.766;2023-07-16T04:45:12;3.17;;;1.83;;
44272;SDS011;29964;17.182;-96.766;2023-07-16T04:47:39;2.30;;;1.27;;
44272;SDS011;29964;17.182;-96.766;2023-07-16T04:50:06;12.00;;;1.57;;
44272;SDS011;29964;17.182;-96.766;2023-07-16T04:52:33;6.33;;;1.60;;
44272;SDS011;29964;17.182;-96.766;2023-07-16T04:55:00;4.20;;;1.97;;
44272;SDS011;29964;17.182;-96.766;2023-07-16T04:57:26;3.47;;;1.83;;
44272;SDS011;29964;17.182;-96.766;2023-07-16T04:59:53;3.30;;;1.87;;
44272;SDS011;29964;17.182;-96.766;2023-07-16T05:02:20;15.47;;;2.87;;
44272;SDS011;29964;17.182;-96.766;2023-07-16T05:04:47;4.67;;;2.23;;
44272;SDS011;29964;17.182;-96.766;2023-07-16T05:07:14;3.97;;;2.13;;
44272;SDS011;29964;17.182;-96.766;2023-07-16T05:09:41;5.13;;;1.83;;
44272;SDS011;29964;17.182;-96.766;2023-07-16T05:12:08;5.13;;;2.07;;
44272;SDS011;29964;17.182;-96.766;2023-07-16T05:14:45;17.80;;;2.50;;
44272;SDS011;29964;17.182;-96.766;2023-07-16T05:17:13;21.27;;;2.90;;
44272;SDS011;29964;17.182;-96.766;2023-07-16T05:19:40;6.53;;;2.37;;
44272;SDS011;29964;17.182;-96.766;2023-07-16T05:22:07;9.77;;;3.10;;
44272;SDS011;29964;17.182;-96.766;2023-07-16T05:24:33;29.87;;;2.87;;
44272;SDS011;29964;17.182;-96.766;2023-07-16T05:27:00;8.57;;;2.57;;
44272;SDS011;29964;17.182;-96.766;2023-07-16T05:29:27;14.27;;;2.03;;
44272;SDS011;29964;17.182;-96.766;2023-07-16T05:31:54;8.37;;;3.00;;
44272;SDS011;29964;17.182;-96.766;2023-07-16T05:34:21;3.77;;;2.10;;
44272;SDS011;29964;17.182;-96.766;2023-07-16T05:36:47;8.07;;;2.20;;
44272;SDS011;29964;17.182;-96.766;2023-07-16T05:39:14;39.67;;;3.70;;
44272;SDS011;29964;17.182;-96.766;2023-07-16T05:41:41;18.23;;;3.23;;
44272;SDS011;29964;17.182;-96.766;2023-07-16T05:44:08;12.33;;;2.23;;
44272;SDS011;29964;17.182;-96.766;2023-07-16T05:46:35;5.40;;;2.70;;
44272;SDS011;29964;17.182;-96.766;2023-07-16T05:49:02;4.40;;;1.57;;
44272;SDS011;29964;17.182;-96.766;2023-07-16T05:51:29;8.03;;;2.57;;
44272;SDS011;29964;17.182;-96.766;2023-07-16T05:53:56;7.30;;;2.80;;
44272;SDS011;29964;17.182;-96.766;2023-07-16T05:56:22;3.13;;;1.93;;
44272;SDS011;29964;17.182;-96.766;2023-07-16T05:58:49;12.20;;;2.20;;
44272;SDS011;29964;17.182;-96.766;2023-07-16T06:01:16;5.83;;;2.67;;
44272;SDS011;29964;17.182;-96.766;2023-07-16T06:03:43;10.87;;;1.90;;
44272;SDS011;29964;17.182;-96.766;2023-07-16T06:06:09;4.00;;;1.73;;
44272;SDS011;29964;17.182;-96.766;2023-07-16T06:08:36;6.47;;;2.37;;
44272;SDS011;29964;17.182;-96.766;2023-07-16T06:11:03;4.20;;;1.97;;
44272;SDS011;29964;17.182;-96.766;2023-07-16T06:13:31;10.50;;;3.30;;
44272;SDS011;29964;17.182;-96.766;2023-07-16T06:15:57;6.60;;;2.07;;
44272;SDS011;29964;17.182;-96.766;2023-07-16T06:18:24;4.83;;;2.17;;
44272;SDS011;29964;17.182;-96.766;2023-07-16T06:20:51;4.70;;;1.60;;
44272;SDS011;29964;17.182;-96.766;2023-07-16T06:23:20;1.50;;;1.23;;
44272;SDS011;29964;17.182;-96.766;2023-07-16T06:25:47;6.43;;;2.37;;
44272;SDS011;29964;17.182;-96.766;2023-07-16T06:28:15;2.67;;;1.60;;
44272;SDS011;29964;17.182;-96.766;2023-07-16T06:30:41;3.77;;;1.87;;
44272;SDS011;29964;17.182;-96.766;2023-07-16T06:33:08;8.53;;;2.70;;
44272;SDS011;29964;17.182;-96.766;2023-07-16T06:35:35;3.43;;;2.17;;
44272;SDS011;29964;17.182;-96.766;2023-07-16T06:38:02;3.07;;;1.93;;
44272;SDS011;29964;17.182;-96.766;2023-07-16T06:40:29;6.20;;;1.77;;
44272;SDS011;29964;17.182;-96.766;2023-07-16T06:42:56;9.67;;;1.83;;
44272;SDS011;29964;17.182;-96.766;2023-07-16T06:45:23;11.00;;;2.17;;
44272;SDS011;29964;17.182;-96.766;2023-07-16T06:47:50;4.87;;;2.03;;
44272;SDS011;29964;17.182;-96.766;2023-07-16T06:50:17;9.03;;;1.63;;
44272;SDS011;29964;17.182;-96.766;2023-07-16T06:52:43;5.07;;;2.37;;
44272;SDS011;29964;17.182;-96.766;2023-07-16T06:55:10;2.37;;;1.57;;
44272;SDS011;29964;17.182;-96.766;2023-07-16T06:57:38;13.73;;;1.93;;
44272;SDS011;29964;17.182;-96.766;2023-07-16T07:00:05;1.83;;;1.50;;
44272;SDS011;29964;17.182;-96.766;2023-07-16T07:02:36;3.13;;;1.57;;
44272;SDS011;29964;17.182;-96.766;2023-07-16T07:05:03;10.20;;;2.13;;
44272;SDS011;29964;17.182;-96.766;2023-07-16T07:07:30;3.37;;;1.93;;
44272;SDS011;29964;17.182;-96.766;2023-07-16T07:09:56;3.50;;;1.87;;
44272;SDS011;29964;17.182;-96.766;2023-07-16T07:12:23;2.40;;;1.40;;
44272;SDS011;29964;17.182;-96.766;2023-07-16T07:14:50;3.77;;;1.57;;
44272;SDS011;29964;17.182;-96.766;2023-07-16T07:17:17;3.03;;;1.33;;
44272;SDS011;29964;17.182;-96.766;2023-07-16T07:19:44;9.13;;;2.63;;
44272;SDS011;29964;17.182;-96.766;2023-07-16T07:22:10;2.30;;;1.70;;
44272;SDS011;29964;17.182;-96.766;2023-07-16T07:24:37;1.00;;;0.73;;
44272;SDS011;29964;17.182;-96.766;2023-07-16T07:27:04;3.00;;;1.27;;
44272;SDS011;29964;17.182;-96.766;2023-07-16T07:29:31;5.60;;;1.77;;
44272;SDS011;29964;17.182;-96.766;2023-07-16T07:31:58;5.57;;;2.37;;
44272;SDS011;29964;17.182;-96.766;2023-07-16T07:34:25;8.00;;;1.93;;
44272;SDS011;29964;17.182;-96.766;2023-07-16T07:36:52;26.63;;;2.10;;
44272;SDS011;29964;17.182;-96.766;2023-07-16T07:39:19;3.00;;;1.70;;
44272;SDS011;29964;17.182;-96.766;2023-07-16T07:41:45;2.67;;;1.30;;
44272;SDS011;29964;17.182;-96.766;2023-07-16T07:44:12;2.93;;;1.83;;
44272;SDS011;29964;17.182;-96.766;2023-07-16T07:46:39;4.30;;;1.77;;
44272;SDS011;29964;17.182;-96.766;2023-07-16T07:49:06;3.97;;;1.77;;
44272;SDS011;29964;17.182;-96.766;2023-07-16T07:51:32;2.73;;;1.10;;
44272;SDS011;29964;17.182;-96.766;2023-07-16T07:53:59;2.60;;;1.60;;
44272;SDS011;29964;17.182;-96.766;2023-07-16T07:56:26;5.97;;;1.67;;
44272;SDS011;29964;17.182;-96.766;2023-07-16T07:58:53;1.97;;;1.57;;
44272;SDS011;29964;17.182;-96.766;2023-07-16T08:01:20;3.83;;;1.43;;
44272;SDS011;29964;17.182;-96.766;2023-07-16T08:03:46;6.77;;;2.00;;
44272;SDS011;29964;17.182;-96.766;2023-07-16T08:06:13;2.27;;;1.40;;
44272;SDS011;29964;17.182;-96.766;2023-07-16T08:08:40;1.53;;;1.17;;
44272;SDS011;29964;17.182;-96.766;2023-07-16T08:11:07;9.73;;;2.23;;
44272;SDS011;29964;17.182;-96.766;2023-07-16T08:13:33;5.27;;;1.50;;
44272;SDS011;29964;17.182;-96.766;2023-07-16T08:16:01;3.23;;;1.00;;
44272;SDS011;29964;17.182;-96.766;2023-07-16T08:18:28;2.03;;;1.47;;
44272;SDS011;29964;17.182;-96.766;2023-07-16T08:20:54;3.37;;;1.40;;
44272;SDS011;29964;17.182;-96.766;2023-07-16T08:23:21;2.63;;;1.37;;
44272;SDS011;29964;17.182;-96.766;2023-07-16T08:25:48;11.77;;;1.07;;
44272;SDS011;29964;17.182;-96.766;2023-07-16T08:28:16;9.37;;;2.00;;
44272;SDS011;29964;17.182;-96.766;2023-07-16T08:30:46;1.37;;;1.13;;
44272;SDS011;29964;17.182;-96.766;2023-07-16T08:33:13;16.53;;;1.87;;
44272;SDS011;29964;17.182;-96.766;2023-07-16T08:35:41;10.87;;;2.20;;
44272;SDS011;29964;17.182;-96.766;2023-07-16T08:38:07;1.93;;;1.27;;
44272;SDS011;29964;17.182;-96.766;2023-07-16T08:40:38;4.90;;;2.13;;
44272;SDS011;29964;17.182;-96.766;2023-07-16T08:43:05;1.67;;;1.10;;
44272;SDS011;29964;17.182;-96.766;2023-07-16T08:45:40;3.00;;;1.23;;
44272;SDS011;29964;17.182;-96.766;2023-07-16T08:48:10;9.00;;;1.20;;
44272;SDS011;29964;17.182;-96.766;2023-07-16T08:50:37;7.50;;;1.67;;
44272;SDS011;29964;17.182;-96.766;2023-07-16T08:53:04;2.40;;;1.30;;
44272;SDS011;29964;17.182;-96.766;2023-07-16T08:55:32;1.87;;;1.40;;
44272;SDS011;29964;17.182;-96.766;2023-07-16T08:57:59;1.63;;;1.00;;
44272;SDS011;29964;17.182;-96.766;2023-07-16T09:00:26;3.70;;;1.67;;
44272;SDS011;29964;17.182;-96.766;2023-07-16T09:02:53;3.30;;;1.70;;
44272;SDS011;29964;17.182;-96.766;2023-07-16T09:05:20;4.07;;;2.30;;
44272;SDS011;29964;17.182;-96.766;2023-07-16T09:07:47;3.57;;;2.40;;
44272;SDS011;29964;17.182;-96.766;2023-07-16T09:10:14;5.03;;;2.43;;
44272;SDS011;29964;17.182;-96.766;2023-07-16T09:12:50;8.00;;;2.77;;
44272;SDS011;29964;17.182;-96.766;2023-07-16T09:15:17;4.67;;;2.40;;
44272;SDS011;29964;17.182;-96.766;2023-07-16T09:17:48;23.53;;;2.93;;
44272;SDS011;29964;17.182;-96.766;2023-07-16T09:20:16;3.80;;;2.53;;
44272;SDS011;29964;17.182;-96.766;2023-07-16T09:22:43;5.20;;;2.60;;
44272;SDS011;29964;17.182;-96.766;2023-07-16T09:25:10;9.17;;;4.00;;
44272;SDS011;29964;17.182;-96.766;2023-07-16T09:27:37;8.40;;;3.33;;
44272;SDS011;29964;17.182;-96.766;2023-07-16T09:30:07;6.67;;;3.47;;
44272;SDS011;29964;17.182;-96.766;2023-07-16T09:32:40;3.47;;;2.90;;
44272;SDS011;29964;17.182;-96.766;2023-07-16T09:35:11;4.33;;;3.17;;
44272;SDS011;29964;17.182;-96.766;2023-07-16T09:37:38;25.63;;;3.47;;
44272;SDS011;29964;17.182;-96.766;2023-07-16T09:40:08;8.40;;;2.50;;
44272;SDS011;29964;17.182;-96.766;2023-07-16T09:42:41;6.20;;;3.40;;
44272;SDS011;29964;17.182;-96.766;2023-07-16T09:45:13;4.03;;;2.50;;
44272;SDS011;29964;17.182;-96.766;2023-07-16T09:47:43;12.32;;;4.07;;
44272;SDS011;29964;17.182;-96.766;2023-07-16T09:50:10;7.73;;;3.37;;
44272;SDS011;29964;17.182;-96.766;2023-07-16T09:52:37;10.87;;;3.60;;
44272;SDS011;29964;17.182;-96.766;2023-07-16T09:55:08;4.17;;;2.77;;
44272;SDS011;29964;17.182;-96.766;2023-07-16T09:57:37;8.87;;;3.33;;
44272;SDS011;29964;17.182;-96.766;2023-07-16T10:00:09;3.73;;;2.77;;
44272;SDS011;29964;17.182;-96.766;2023-07-16T10:02:39;21.73;;;3.63;;
44272;SDS011;29964;17.182;-96.766;2023-07-16T10:05:19;4.27;;;3.27;;
44272;SDS011;29964;17.182;-96.766;2023-07-16T10:07:53;7.83;;;3.13;;
44272;SDS011;29964;17.182;-96.766;2023-07-16T10:10:20;11.30;;;3.87;;
44272;SDS011;29964;17.182;-96.766;2023-07-16T10:12:58;16.47;;;3.23;;
44272;SDS011;29964;17.182;-96.766;2023-07-16T10:15:28;4.40;;;2.97;;
44272;SDS011;29964;17.182;-96.766;2023-07-16T10:17:55;3.27;;;2.20;;
44272;SDS011;29964;17.182;-96.766;2023-07-16T10:20:32;12.37;;;3.93;;
44272;SDS011;29964;17.182;-96.766;2023-07-16T10:23:09;23.73;;;2.73;;
44272;SDS011;29964;17.182;-96.766;2023-07-16T10:25:39;3.77;;;2.20;;
44272;SDS011;29964;17.182;-96.766;2023-07-16T10:28:06;6.80;;;2.80;;
44272;SDS011;29964;17.182;-96.766;2023-07-16T10:30:33;3.90;;;2.53;;
44272;SDS011;29964;17.182;-96.766;2023-07-16T10:33:03;8.63;;;2.83;;
44272;SDS011;29964;17.182;-96.766;2023-07-16T10:35:40;2.77;;;1.60;;
44272;SDS011;29964;17.182;-96.766;2023-07-16T10:38:07;11.50;;;2.50;;
44272;SDS011;29964;17.182;-96.766;2023-07-16T10:40:39;3.63;;;1.93;;
44272;SDS011;29964;17.182;-96.766;2023-07-16T10:43:06;5.20;;;3.13;;
44272;SDS011;29964;17.182;-96.766;2023-07-16T10:45:33;5.87;;;2.70;;
44272;SDS011;29964;17.182;-96.766;2023-07-16T10:47:59;4.67;;;3.00;;
44272;SDS011;29964;17.182;-96.766;2023-07-16T10:50:26;4.57;;;2.67;;
44272;SDS011;29964;17.182;-96.766;2023-07-16T10:52:54;3.47;;;2.40;;
44272;SDS011;29964;17.182;-96.766;2023-07-16T10:55:21;7.77;;;2.90;;
44272;SDS011;29964;17.182;-96.766;2023-07-16T10:57:48;14.17;;;2.67;;
44272;SDS011;29964;17.182;-96.766;2023-07-16T11:00:15;18.70;;;3.00;;
44272;SDS011;29964;17.182;-96.766;2023-07-16T11:02:42;6.77;;;2.47;;
44272;SDS011;29964;17.182;-96.766;2023-07-16T11:05:13;3.70;;;2.63;;
44272;SDS011;29964;17.182;-96.766;2023-07-16T11:07:43;8.10;;;2.50;;
44272;SDS011;29964;17.182;-96.766;2023-07-16T11:10:10;3.97;;;2.47;;
44272;SDS011;29964;17.182;-96.766;2023-07-16T11:12:37;5.97;;;2.90;;
44272;SDS011;29964;17.182;-96.766;2023-07-16T11:15:05;2.67;;;2.10;;
44272;SDS011;29964;17.182;-96.766;2023-07-16T11:17:32;4.37;;;2.53;;
44272;SDS011;29964;17.182;-96.766;2023-07-16T11:19:59;8.77;;;2.60;;
44272;SDS011;29964;17.182;-96.766;2023-07-16T11:22:28;3.03;;;2.20;;
44272;SDS011;29964;17.182;-96.766;2023-07-16T11:24:55;3.93;;;2.20;;
44272;SDS011;29964;17.182;-96.766;2023-07-16T11:27:25;4.17;;;2.67;;
44272;SDS011;29964;17.182;-96.766;2023-07-16T11:29:56;8.77;;;2.63;;
44272;SDS011;29964;17.182;-96.766;2023-07-16T11:34:57;3.50;;;2.23;;
44272;SDS011;29964;17.182;-96.766;2023-07-16T11:37:24;2.53;;;2.00;;
44272;SDS011;29964;17.182;-96.766;2023-07-16T11:39:55;4.13;;;2.43;;
44272;SDS011;29964;17.182;-96.766;2023-07-16T11:42:23;3.33;;;2.03;;
44272;SDS011;29964;17.182;-96.766;2023-07-16T11:44:50;3.27;;;2.43;;
44272;SDS011;29964;17.182;-96.766;2023-07-16T11:47:17;6.10;;;2.40;;
44272;SDS011;29964;17.182;-96.766;2023-07-16T11:49:44;2.97;;;1.60;;
44272;SDS011;29964;17.182;-96.766;2023-07-16T11:52:10;6.57;;;3.33;;
44272;SDS011;29964;17.182;-96.766;2023-07-16T11:54:37;5.77;;;2.67;;
44272;SDS011;29964;17.182;-96.766;2023-07-16T11:57:04;4.37;;;2.47;;
44272;SDS011;29964;17.182;-96.766;2023-07-16T11:59:31;5.10;;;2.77;;
44272;SDS011;29964;17.182;-96.766;2023-07-16T12:01:57;7.97;;;3.10;;
44272;SDS011;29964;17.182;-96.766;2023-07-16T12:04:25;4.43;;;2.53;;
44272;SDS011;29964;17.182;-96.766;2023-07-16T12:06:52;4.10;;;2.83;;
44272;SDS011;29964;17.182;-96.766;2023-07-16T12:09:19;3.63;;;2.53;;
44272;SDS011;29964;17.182;-96.766;2023-07-16T12:11:46;3.57;;;2.30;;
44272;SDS011;29964;17.182;-96.766;2023-07-16T12:14:12;4.90;;;2.60;;
44272;SDS011;29964;17.182;-96.766;2023-07-16T12:16:39;3.60;;;2.43;;
44272;SDS011;29964;17.182;-96.766;2023-07-16T12:19:07;2.70;;;1.73;;
44272;SDS011;29964;17.182;-96.766;2023-07-16T12:21:34;3.73;;;2.03;;
44272;SDS011;29964;17.182;-96.766;2023-07-16T12:24:00;3.13;;;2.23;;
44272;SDS011;29964;17.182;-96.766;2023-07-16T12:26:27;2.17;;;1.97;;
44272;SDS011;29964;17.182;-96.766;2023-07-16T12:28:54;5.93;;;3.50;;
44272;SDS011;29964;17.182;-96.766;2023-07-16T12:31:21;4.50;;;2.43;;
44272;SDS011;29964;17.182;-96.766;2023-07-16T12:33:48;6.57;;;3.27;;
44272;SDS011;29964;17.182;-96.766;2023-07-16T12:36:15;4.10;;;2.60;;
44272;SDS011;29964;17.182;-96.766;2023-07-16T12:38:42;4.17;;;2.33;;
44272;SDS011;29964;17.182;-96.766;2023-07-16T12:41:08;6.77;;;2.53;;
44272;SDS011;29964;17.182;-96.766;2023-07-16T12:43:35;13.10;;;2.97;;
44272;SDS011;29964;17.182;-96.766;2023-07-16T12:46:03;6.40;;;2.90;;
44272;SDS011;29964;17.182;-96.766;2023-07-16T12:48:30;17.77;;;2.80;;
44272;SDS011;29964;17.182;-96.766;2023-07-16T12:50:57;7.40;;;2.83;;
44272;SDS011;29964;17.182;-96.766;2023-07-16T12:53:24;4.43;;;2.13;;
44272;SDS011;29964;17.182;-96.766;2023-07-16T12:55:51;5.50;;;2.87;;
44272;SDS011;29964;17.182;-96.766;2023-07-16T12:58:18;8.97;;;3.40;;
44272;SDS011;29964;17.182;-96.766;2023-07-16T13:00:45;2.80;;;2.40;;
44272;SDS011;29964;17.182;-96.766;2023-07-16T13:03:12;2.47;;;1.83;;
44272;SDS011;29964;17.182;-96.766;2023-07-16T13:05:42;8.13;;;3.37;;
44272;SDS011;29964;17.182;-96.766;2023-07-16T13:08:09;6.57;;;3.27;;
44272;SDS011;29964;17.182;-96.766;2023-07-16T13:10:36;3.87;;;2.17;;
44272;SDS011;29964;17.182;-96.766;2023-07-16T13:13:03;7.63;;;3.17;;
44272;SDS011;29964;17.182;-96.766;2023-07-16T13:15:30;4.90;;;2.83;;
44272;SDS011;29964;17.182;-96.766;2023-07-16T13:17:56;6.03;;;3.10;;
44272;SDS011;29964;17.182;-96.766;2023-07-16T13:20:23;3.23;;;2.43;;
44272;SDS011;29964;17.182;-96.766;2023-07-16T13:22:50;5.63;;;2.90;;
44272;SDS011;29964;17.182;-96.766;2023-07-16T13:25:17;22.13;;;3.23;;
44272;SDS011;29964;17.182;-96.766;2023-07-16T13:27:44;6.27;;;3.43;;
44272;SDS011;29964;17.182;-96.766;2023-07-16T13:30:12;5.77;;;2.40;;
44272;SDS011;29964;17.182;-96.766;2023-07-16T13:32:39;4.20;;;2.57;;
44272;SDS011;29964;17.182;-96.766;2023-07-16T13:35:05;4.63;;;2.50;;
44272;SDS011;29964;17.182;-96.766;2023-07-16T13:37:32;6.47;;;2.10;;
44272;SDS011;29964;17.182;-96.766;2023-07-16T13:39:59;4.13;;;2.27;;
44272;SDS011;29964;17.182;-96.766;2023-07-16T13:42:26;26.63;;;2.60;;
44272;SDS011;29964;17.182;-96.766;2023-07-16T13:44:53;9.97;;;3.00;;
44272;SDS011;29964;17.182;-96.766;2023-07-16T13:47:20;6.80;;;2.97;;
44272;SDS011;29964;17.182;-96.766;2023-07-16T13:49:46;3.53;;;2.43;;
44272;SDS011;29964;17.182;-96.766;2023-07-16T13:52:13;5.50;;;2.87;;
44272;SDS011;29964;17.182;-96.766;2023-07-16T13:54:40;10.43;;;3.03;;
44272;SDS011;29964;17.182;-96.766;2023-07-16T13:57:07;5.30;;;2.07;;
44272;SDS011;29964;17.182;-96.766;2023-07-16T13:59:34;5.57;;;2.30;;
44272;SDS011;29964;17.182;-96.766;2023-07-16T14:02:01;4.17;;;2.03;;
44272;SDS011;29964;17.182;-96.766;2023-07-16T14:04:28;6.93;;;3.23;;
44272;SDS011;29964;17.182;-96.766;2023-07-16T14:06:55;6.83;;;2.77;;
44272;SDS011;29964;17.182;-96.766;2023-07-16T14:09:22;10.63;;;2.50;;
44272;SDS011;29964;17.182;-96.766;2023-07-16T14:11:49;8.73;;;2.53;;
44272;SDS011;29964;17.182;-96.766;2023-07-16T14:14:16;6.00;;;3.27;;
44272;SDS011;29964;17.182;-96.766;2023-07-16T14:16:43;4.97;;;2.57;;
44272;SDS011;29964;17.182;-96.766;2023-07-16T14:19:09;4.30;;;2.53;;
44272;SDS011;29964;17.182;-96.766;2023-07-16T14:21:39;12.33;;;3.43;;
44272;SDS011;29964;17.182;-96.766;2023-07-16T14:24:06;2.07;;;1.60;;
44272;SDS011;29964;17.182;-96.766;2023-07-16T14:26:33;4.07;;;1.83;;
44272;SDS011;29964;17.182;-96.766;2023-07-16T14:29:00;2.17;;;1.57;;
44272;SDS011;29964;17.182;-96.766;2023-07-16T14:31:27;7.13;;;3.17;;